createdAt,value
2022-12-14T00:01:26.943Z,40.05
2022-12-14T00:03:54.544Z,45.15
2022-12-14T00:06:26.641Z,52.92
2022-12-14T00:08:55.465Z,44.60
2022-12-14T00:11:25.059Z,42.17
2022-12-14T00:13:59.853Z,43.05
2022-12-14T00:16:29.058Z,40.58
2022-12-14T00:18:57.666Z,37.83
2022-12-14T00:21:24.803Z,37.80
2022-12-14T00:23:52.832Z,40.50
2022-12-14T00:26:27.234Z,38.65
2022-12-14T00:28:55.381Z,42.50
2022-12-14T00:31:23.661Z,41.65
2022-12-14T00:33:50.563Z,33.33
2022-12-14T00:36:17.481Z,39.50
2022-12-14T00:38:44.581Z,53.55
2022-12-14T00:41:11.483Z,65.75
2022-12-14T00:43:38.296Z,63.70
2022-12-14T00:46:05.511Z,54.20
2022-12-14T00:48:33.129Z,39.00
2022-12-14T00:51:00.031Z,34.28
2022-12-14T00:53:26.642Z,30.17
2022-12-14T00:55:53.084Z,33.30
2022-12-14T00:58:22.634Z,40.58
2022-12-14T01:00:59.409Z,36.25
2022-12-14T01:03:26.249Z,32.28
2022-12-14T01:05:53.112Z,30.10
2022-12-14T01:08:20.053Z,31.35
2022-12-14T01:10:46.457Z,31.45
2022-12-14T01:13:12.892Z,50.45
2022-12-14T01:15:39.414Z,48.45
2022-12-14T01:18:05.907Z,47.40
2022-12-14T01:20:32.403Z,54.40
2022-12-14T01:22:58.966Z,47.55
2022-12-14T01:25:25.834Z,39.70
2022-12-14T01:27:52.368Z,65.05
2022-12-14T01:30:19.446Z,62.25
2022-12-14T01:32:46.786Z,56.85
2022-12-14T01:35:13.184Z,60.88
2022-12-14T01:37:39.601Z,44.13
2022-12-14T01:40:06.360Z,35.40
2022-12-14T01:42:35.809Z,32.88
2022-12-14T01:45:02.622Z,32.05
2022-12-14T01:47:41.956Z,26.88
2022-12-14T01:50:22.186Z,26.90
2022-12-14T01:52:51.499Z,27.38
2022-12-14T01:55:26.712Z,27.63
2022-12-14T01:58:03.134Z,27.48
2022-12-14T02:00:30.173Z,28.70
2022-12-14T02:03:20.085Z,27.42
2022-12-14T02:05:50.455Z,29.30
2022-12-14T02:08:19.055Z,27.65
2022-12-14T02:10:47.694Z,28.90
2022-12-14T02:13:33.124Z,25.23
2022-12-14T02:15:59.870Z,26.98
2022-12-14T02:18:31.439Z,27.58
2022-12-14T02:23:54.891Z,25.50
2022-12-14T02:26:49.736Z,28.52
2022-12-14T02:29:52.776Z,28.20
2022-12-14T02:32:26.477Z,27.13
2022-12-14T02:35:02.013Z,27.77
2022-12-14T02:37:57.162Z,26.40
2022-12-14T02:40:34.012Z,26.17
2022-12-14T02:43:18.906Z,29.77
2022-12-14T02:45:56.024Z,26.75
2022-12-14T02:48:24.464Z,25.80
2022-12-14T02:51:08.062Z,26.85
2022-12-14T02:53:42.237Z,26.20
2022-12-14T02:56:13.066Z,24.58
2022-12-14T02:58:43.695Z,25.17
2022-12-14T03:01:14.255Z,26.85
2022-12-14T03:03:41.524Z,24.80
2022-12-14T03:06:25.967Z,25.75
2022-12-14T03:09:03.972Z,22.95
2022-12-14T03:11:42.226Z,25.30
2022-12-14T03:14:22.917Z,24.50
2022-12-14T03:16:51.991Z,23.88
2022-12-14T03:19:24.834Z,23.08
2022-12-14T03:21:56.213Z,25.90
2022-12-14T03:24:29.688Z,25.63
2022-12-14T03:27:15.252Z,24.75
2022-12-14T03:29:49.613Z,23.58
2022-12-14T03:32:19.923Z,22.15
2022-12-14T03:35:00.086Z,23.23
2022-12-14T03:37:34.608Z,23.98
2022-12-14T03:40:01.210Z,23.67
2022-12-14T03:42:38.675Z,23.55
2022-12-14T03:45:26.025Z,25.55
2022-12-14T03:48:09.538Z,21.83
2022-12-14T03:50:39.497Z,23.75
2022-12-14T03:53:18.111Z,23.58
2022-12-14T03:55:52.521Z,24.60
2022-12-14T03:58:42.121Z,25.65
2022-12-14T04:01:29.446Z,25.58
2022-12-14T04:04:20.412Z,23.75
2022-12-14T04:07:02.098Z,23.43
2022-12-14T04:09:39.989Z,21.95
2022-12-14T04:12:36.780Z,21.98
2022-12-14T04:15:30.657Z,22.77
2022-12-14T04:18:21.043Z,23.08
2022-12-14T04:20:59.504Z,21.98
2022-12-14T04:23:51.825Z,24.25
2022-12-14T04:26:25.532Z,22.77
2022-12-14T04:29:16.239Z,23.77
2022-12-14T04:31:49.797Z,25.10
2022-12-14T04:34:19.818Z,26.15
2022-12-14T04:36:51.337Z,23.58
2022-12-14T04:39:43.279Z,24.67
2022-12-14T04:42:12.635Z,26.83
2022-12-14T04:44:52.057Z,22.42
2022-12-14T04:47:26.467Z,24.70
2022-12-14T04:50:00.534Z,24.73
2022-12-14T04:52:48.235Z,24.95
2022-12-14T04:55:29.056Z,26.25
2022-12-14T04:58:21.364Z,26.60
2022-12-14T05:01:20.852Z,23.05
2022-12-14T05:04:07.088Z,22.52
2022-12-14T05:06:51.185Z,24.90
2022-12-14T05:09:20.596Z,23.85
2022-12-14T05:12:20.366Z,23.33
2022-12-14T05:14:59.569Z,24.55
2022-12-14T05:17:27.188Z,58.80
2022-12-14T05:19:54.308Z,55.20
2022-12-14T05:22:20.853Z,44.20
2022-12-14T05:24:47.344Z,31.42
2022-12-14T05:27:13.744Z,28.02
2022-12-14T05:29:40.365Z,25.27
2022-12-14T05:32:06.813Z,22.85
2022-12-14T05:34:34.114Z,23.98
2022-12-14T05:37:00.559Z,24.40
2022-12-14T05:39:26.997Z,39.38
2022-12-14T05:41:53.531Z,28.23
2022-12-14T05:44:20.467Z,30.48
2022-12-14T05:46:46.920Z,24.73
2022-12-14T05:49:13.346Z,60.67
2022-12-14T05:51:40.667Z,36.25
2022-12-14T05:54:07.309Z,46.15
2022-12-14T05:56:33.800Z,32.30
2022-12-14T05:59:00.403Z,37.35
2022-12-14T06:01:26.934Z,35.97
2022-12-14T06:03:53.544Z,84.65
2022-12-14T06:06:20.150Z,50.40
2022-12-14T06:08:47.274Z,40.75
2022-12-14T06:11:19.571Z,41.40
2022-12-14T06:13:46.570Z,32.88
2022-12-14T06:16:14.444Z,19.42
2022-12-14T06:18:52.531Z,22.17
2022-12-14T06:21:21.272Z,43.67
2022-12-14T06:23:48.141Z,33.63
2022-12-14T06:26:15.636Z,44.95
2022-12-14T06:28:42.944Z,57.53
2022-12-14T06:31:20.763Z,30.20
2022-12-14T06:33:47.960Z,19.73
2022-12-14T06:36:19.636Z,40.55
2022-12-14T06:38:46.224Z,31.60
2022-12-14T06:41:12.606Z,24.95
2022-12-14T06:43:39.079Z,36.67
2022-12-14T06:46:14.842Z,44.95
2022-12-14T06:48:42.475Z,34.13
2022-12-14T06:51:09.201Z,26.58
2022-12-14T06:53:36.410Z,25.17
2022-12-14T06:56:10.388Z,21.48
2022-12-14T06:58:37.009Z,21.13
2022-12-14T07:01:04.933Z,18.98
2022-12-14T07:03:35.030Z,30.75
2022-12-14T07:06:09.398Z,21.05
2022-12-14T07:08:38.183Z,18.80
2022-12-14T07:11:13.587Z,19.75
2022-12-14T07:13:42.785Z,20.20
2022-12-14T07:16:31.417Z,19.50
2022-12-14T07:18:59.334Z,20.25
2022-12-14T07:21:29.449Z,21.15
2022-12-14T07:24:20.312Z,19.90
2022-12-14T07:26:46.851Z,18.10
2022-12-14T07:29:31.077Z,22.73
2022-12-14T07:32:15.362Z,18.13
2022-12-14T07:34:52.187Z,20.75
2022-12-14T07:37:27.535Z,25.67
2022-12-14T07:39:57.290Z,25.27
2022-12-14T07:42:23.942Z,23.88
2022-12-14T07:45:05.420Z,28.27
2022-12-14T07:47:34.046Z,26.65
2022-12-14T07:50:03.158Z,31.27
2022-12-14T07:52:44.101Z,27.00
2022-12-14T07:55:17.970Z,24.63
2022-12-14T07:57:44.579Z,24.95
2022-12-14T08:00:13.510Z,24.55
2022-12-14T08:02:46.116Z,26.70
2022-12-14T08:05:12.983Z,24.48
2022-12-14T08:07:39.463Z,22.98
2022-12-14T08:10:06.612Z,21.15
2022-12-14T08:12:33.110Z,22.45
2022-12-14T08:14:59.488Z,35.85
2022-12-14T08:17:25.906Z,26.40
2022-12-14T08:19:52.488Z,24.25
2022-12-14T08:22:18.928Z,26.35
2022-12-14T08:24:49.600Z,24.08
2022-12-14T08:27:16.527Z,25.73
2022-12-14T08:29:46.360Z,27.08
2022-12-14T08:32:17.940Z,27.55
2022-12-14T08:37:11.505Z,24.13
2022-12-14T08:39:38.147Z,26.85
2022-12-14T08:42:04.586Z,24.95
2022-12-14T08:44:31.170Z,22.65
2022-12-14T08:47:08.431Z,21.70
2022-12-14T08:49:34.949Z,24.55
2022-12-14T08:52:01.432Z,23.67
2022-12-14T08:54:28.026Z,20.50
2022-12-14T08:56:54.500Z,22.52
2022-12-14T08:59:51.987Z,20.17
2022-12-14T09:02:18.077Z,19.92
2022-12-14T09:04:44.568Z,21.17
2022-12-14T09:07:11.006Z,19.70
2022-12-14T09:09:37.657Z,20.17
2022-12-14T09:12:07.390Z,18.80
2022-12-14T09:14:37.672Z,19.92
2022-12-14T09:17:04.543Z,18.05
2022-12-14T09:19:30.983Z,17.00
2022-12-14T09:21:58.010Z,19.23
2022-12-14T09:24:24.537Z,16.17
2022-12-14T09:26:51.728Z,18.13
2022-12-14T09:29:21.857Z,18.77
2022-12-14T09:31:48.420Z,19.05
2022-12-14T09:34:14.930Z,20.23
2022-12-14T09:36:42.172Z,18.08
2022-12-14T09:39:08.696Z,19.52
2022-12-14T09:41:43.629Z,19.63
2022-12-14T09:44:24.803Z,19.95
2022-12-14T09:47:02.643Z,22.80
2022-12-14T09:49:33.809Z,21.40
2022-12-14T09:52:05.315Z,24.98
2022-12-14T09:54:38.293Z,28.48
2022-12-14T09:57:19.642Z,23.60
2022-12-14T09:59:46.110Z,25.60
2022-12-14T10:02:40.703Z,26.30
2022-12-14T10:05:19.597Z,28.23
2022-12-14T10:07:59.288Z,25.63
2022-12-14T10:10:36.962Z,24.58
2022-12-14T10:13:24.672Z,26.08
2022-12-14T10:16:26.675Z,30.58
2022-12-14T10:19:16.584Z,30.08
2022-12-14T10:21:55.149Z,29.20
2022-12-14T10:24:34.041Z,30.50
2022-12-14T10:27:01.817Z,31.02
2022-12-14T10:29:40.070Z,28.95
2022-12-14T10:32:06.723Z,31.00
2022-12-14T10:34:34.764Z,33.45
2022-12-14T10:37:25.507Z,28.63
2022-12-14T10:40:16.424Z,30.95
2022-12-14T10:43:34.344Z,29.58
2022-12-14T10:48:48.188Z,29.38
2022-12-14T10:51:30.173Z,28.98
2022-12-14T10:54:38.425Z,30.27
2022-12-14T10:57:06.174Z,27.85
2022-12-14T10:59:42.334Z,28.42
2022-12-14T11:04:59.956Z,27.38
2022-12-14T11:07:53.416Z,26.80
2022-12-14T11:10:22.531Z,25.88
2022-12-14T11:13:01.492Z,28.08
2022-12-14T11:16:21.896Z,27.00
2022-12-14T11:19:02.111Z,29.27
2022-12-14T11:21:34.284Z,26.70
2022-12-14T11:24:01.847Z,27.30
2022-12-14T11:26:33.915Z,27.92
2022-12-14T11:29:02.847Z,28.15
2022-12-14T11:31:39.713Z,25.70
2022-12-14T11:34:27.848Z,25.52
2022-12-14T11:36:54.348Z,26.15
2022-12-14T11:39:23.709Z,26.63
2022-12-14T11:41:57.969Z,23.70
2022-12-14T11:44:33.278Z,25.88
2022-12-14T11:47:05.184Z,27.52
2022-12-14T11:49:39.525Z,24.20
2022-12-14T11:52:05.997Z,26.67
2022-12-14T11:54:38.461Z,24.98
2022-12-14T11:57:18.416Z,23.63
2022-12-14T11:59:58.067Z,24.05
2022-12-14T12:02:30.045Z,24.52
2022-12-14T12:05:19.843Z,29.60
2022-12-14T12:07:49.585Z,26.30
2022-12-14T12:10:40.996Z,28.02
2022-12-14T12:13:32.425Z,33.13
2022-12-14T12:16:13.526Z,26.50
2022-12-14T12:18:50.491Z,27.10
2022-12-14T12:21:26.537Z,26.50
2022-12-14T12:24:15.129Z,26.73
2022-12-14T12:27:15.530Z,24.98
2022-12-14T12:29:54.961Z,24.45
2022-12-14T12:32:24.978Z,26.85
2022-12-14T12:35:14.962Z,24.50
2022-12-14T12:38:20.590Z,26.63
2022-12-14T12:41:03.151Z,28.15
2022-12-14T12:43:50.031Z,28.52
2022-12-14T12:46:22.826Z,29.40
2022-12-14T12:49:01.702Z,32.65
2022-12-14T12:51:35.014Z,30.80
2022-12-14T12:54:06.581Z,39.58
2022-12-14T12:59:04.499Z,32.65
2022-12-14T13:01:46.111Z,29.85
2022-12-14T13:07:05.179Z,30.50
2022-12-14T13:09:49.004Z,43.17
2022-12-14T13:12:41.943Z,26.92
2022-12-14T13:15:19.374Z,27.75
2022-12-14T13:17:50.745Z,35.50
2022-12-14T13:20:30.604Z,38.88
2022-12-14T13:23:05.702Z,33.63
2022-12-14T13:26:48.634Z,36.13
2022-12-14T13:29:27.958Z,40.58
2022-12-14T13:32:22.187Z,30.30
2022-12-14T13:35:07.029Z,27.35
2022-12-14T13:37:42.585Z,31.70
2022-12-14T13:40:39.499Z,37.47
2022-12-14T13:43:35.522Z,30.38
2022-12-14T13:46:11.416Z,33.60
2022-12-14T13:48:41.396Z,32.63
2022-12-14T13:51:18.921Z,32.63
2022-12-14T13:53:50.411Z,32.40
2022-12-14T13:56:32.451Z,26.30
2022-12-14T13:59:02.924Z,28.92
2022-12-14T14:01:47.855Z,27.45
2022-12-14T14:04:18.528Z,25.15
2022-12-14T14:06:49.753Z,26.77
2022-12-14T14:09:35.053Z,26.58
2022-12-14T14:12:28.547Z,27.48
2022-12-14T14:15:35.923Z,26.13
2022-12-14T14:18:07.569Z,26.42
2022-12-14T14:20:45.299Z,26.70
2022-12-14T14:23:15.269Z,24.95
2022-12-14T14:26:13.805Z,25.48
2022-12-14T14:28:40.587Z,26.88
2022-12-14T14:31:07.291Z,26.42
2022-12-14T14:33:50.759Z,27.95
2022-12-14T14:36:33.502Z,29.70
2022-12-14T14:39:54.569Z,32.55
2022-12-14T14:42:34.642Z,25.38
2022-12-14T14:45:21.656Z,27.10
2022-12-14T14:47:55.766Z,30.05
2022-12-14T14:50:29.448Z,29.17
2022-12-14T14:53:25.037Z,27.92
2022-12-14T14:56:05.208Z,28.50
2022-12-14T14:58:39.759Z,32.20
2022-12-14T15:01:09.295Z,27.38
2022-12-14T15:03:48.130Z,30.05
2022-12-14T15:06:17.731Z,30.10
2022-12-14T15:08:48.865Z,29.50
2022-12-14T15:11:19.713Z,28.60
2022-12-14T15:13:56.517Z,29.83
2022-12-14T15:16:40.609Z,31.33
2022-12-14T15:19:29.323Z,27.40
2022-12-14T15:22:12.928Z,27.98
2022-12-14T15:24:42.419Z,28.02
2022-12-14T15:27:38.057Z,26.60
2022-12-14T15:30:19.115Z,29.95
2022-12-14T15:32:58.966Z,35.30
2022-12-14T15:35:29.614Z,33.22
2022-12-14T15:38:18.574Z,34.90
2022-12-14T15:40:57.571Z,31.85
2022-12-14T15:43:25.484Z,35.38
2022-12-14T15:45:55.992Z,31.98
2022-12-14T15:48:29.912Z,32.47
2022-12-14T15:51:13.076Z,29.80
2022-12-14T15:53:50.274Z,29.83
2022-12-14T15:56:43.997Z,27.58
2022-12-14T15:59:20.184Z,31.58
2022-12-14T16:01:54.325Z,30.67
2022-12-14T16:04:27.822Z,31.38
2022-12-14T16:07:12.164Z,28.25
2022-12-14T16:09:49.952Z,31.35
2022-12-14T16:12:44.268Z,32.35
2022-12-14T16:15:24.183Z,28.75
2022-12-14T16:17:59.041Z,33.60
2022-12-14T16:20:31.703Z,29.90
2022-12-14T16:23:13.050Z,31.75
2022-12-14T16:25:52.394Z,32.25
2022-12-14T16:28:34.242Z,33.35
2022-12-14T16:31:12.685Z,34.08
2022-12-14T16:33:42.727Z,35.70
2022-12-14T16:36:18.295Z,45.65
2022-12-14T16:38:55.882Z,62.25
2022-12-14T16:41:37.475Z,33.00
2022-12-14T16:44:07.529Z,35.85
2022-12-14T16:46:34.155Z,49.28
2022-12-14T16:49:22.014Z,44.45
2022-12-14T16:52:12.926Z,36.67
2022-12-14T16:54:40.267Z,30.17
2022-12-14T16:57:18.507Z,29.30
2022-12-14T16:59:46.926Z,37.58
2022-12-14T17:02:34.732Z,31.00
2022-12-14T17:05:13.327Z,25.70
2022-12-14T17:07:40.050Z,24.15
2022-12-14T17:10:22.403Z,29.45
2022-12-14T17:12:49.156Z,28.05
2022-12-14T17:15:17.556Z,25.65
2022-12-14T17:17:45.767Z,26.13
2022-12-14T17:20:25.869Z,25.02
2022-12-14T17:22:54.148Z,27.45
2022-12-14T17:25:21.029Z,30.95
2022-12-14T17:27:47.843Z,37.00
2022-12-14T17:30:17.771Z,59.55
2022-12-14T17:32:44.980Z,40.67
2022-12-14T17:35:26.383Z,42.28
2022-12-14T17:37:52.808Z,65.28
2022-12-14T17:40:19.299Z,53.75
2022-12-14T17:42:52.229Z,48.08
2022-12-14T17:45:28.341Z,30.95
2022-12-14T17:47:54.830Z,36.28
2022-12-14T17:50:22.092Z,30.20
2022-12-14T17:52:50.257Z,31.15
2022-12-14T17:55:22.643Z,27.00
2022-12-14T17:57:49.656Z,26.95
2022-12-14T18:00:40.666Z,25.02
2022-12-14T18:03:07.575Z,28.77
2022-12-14T18:05:34.236Z,26.17
2022-12-14T18:08:00.859Z,28.35
2022-12-14T18:10:28.211Z,26.08
2022-12-14T18:12:55.537Z,25.45
2022-12-14T18:15:28.702Z,23.98
2022-12-14T18:17:55.555Z,26.42
2022-12-14T18:20:23.880Z,25.67
2022-12-14T18:22:51.086Z,26.35
2022-12-14T18:25:31.741Z,26.10
2022-12-14T18:28:00.141Z,26.77
2022-12-14T18:30:30.934Z,28.17
2022-12-14T18:33:01.560Z,31.95
2022-12-14T18:35:33.125Z,27.98
2022-12-14T18:40:29.104Z,25.15
2022-12-14T18:42:56.298Z,27.55
2022-12-14T18:45:24.125Z,29.58
2022-12-14T18:47:51.630Z,53.40
2022-12-14T18:50:18.808Z,29.83
2022-12-14T18:52:46.148Z,26.88
2022-12-14T18:55:24.793Z,25.77
2022-12-14T18:57:54.400Z,26.83
2022-12-14T19:00:23.672Z,28.00
2022-12-14T19:02:50.803Z,26.60
2022-12-14T19:05:25.636Z,30.05
2022-12-14T19:07:53.052Z,27.95
2022-12-14T19:10:25.625Z,31.17
2022-12-14T19:12:52.549Z,39.63
2022-12-14T19:15:31.386Z,40.65
2022-12-14T19:17:58.028Z,36.25
2022-12-14T19:20:25.577Z,33.17
2022-12-14T19:22:52.143Z,30.67
2022-12-14T19:25:19.746Z,28.08
2022-12-14T19:28:26.077Z,28.92
2022-12-14T19:30:34.543Z,26.98
2022-12-14T19:33:01.047Z,27.95
2022-12-14T19:35:27.450Z,27.00
2022-12-14T19:37:53.983Z,28.42
2022-12-14T19:40:21.246Z,30.30
2022-12-14T19:42:47.669Z,32.78
2022-12-14T19:45:15.191Z,38.15
2022-12-14T19:47:43.938Z,33.50
2022-12-14T19:50:14.137Z,29.92
2022-12-14T19:52:40.787Z,28.17
2022-12-14T19:55:07.497Z,32.00
2022-12-14T19:57:33.935Z,31.23
2022-12-14T20:00:00.719Z,32.53
2022-12-14T20:02:27.510Z,32.67
2022-12-14T20:04:54.193Z,33.35
2022-12-14T20:07:20.697Z,33.97
2022-12-14T20:09:47.197Z,36.35
2022-12-14T20:12:13.735Z,31.60
2022-12-14T20:14:40.304Z,34.28
2022-12-14T20:17:08.363Z,31.75
2022-12-14T20:19:36.066Z,32.95
2022-12-14T20:22:03.474Z,31.88
2022-12-14T20:24:30.329Z,33.75
2022-12-14T20:26:56.844Z,33.75
2022-12-14T20:29:23.311Z,35.63
2022-12-14T20:31:50.110Z,34.78
2022-12-14T20:34:16.594Z,33.15
2022-12-14T20:36:43.029Z,33.13
2022-12-14T20:39:09.972Z,33.17
2022-12-14T20:41:36.623Z,31.98
2022-12-14T20:44:07.475Z,31.20
2022-12-14T20:46:36.551Z,33.97
2022-12-14T20:49:10.255Z,34.17
2022-12-14T20:51:38.434Z,31.35
2022-12-14T20:54:07.642Z,32.97
2022-12-14T20:56:35.297Z,33.80
2022-12-14T20:59:02.686Z,33.40
2022-12-14T21:01:29.780Z,34.65
2022-12-14T21:03:59.172Z,31.98
2022-12-14T21:06:25.702Z,36.25
2022-12-14T21:09:11.502Z,31.98
2022-12-14T21:12:01.890Z,31.45
2022-12-14T21:14:31.076Z,33.10
2022-12-14T21:16:59.253Z,35.15
2022-12-14T21:19:26.223Z,34.85
2022-12-14T21:21:54.062Z,33.72
2022-12-14T21:24:52.505Z,35.05
2022-12-14T21:27:14.747Z,35.47
2022-12-14T21:29:41.157Z,36.75
2022-12-14T21:32:07.739Z,36.97
2022-12-14T21:34:34.295Z,35.83
2022-12-14T21:37:00.740Z,36.95
2022-12-14T21:39:27.142Z,33.83
2022-12-14T21:42:11.992Z,31.23
2022-12-14T21:44:46.203Z,32.53
2022-12-14T21:47:15.451Z,29.30
2022-12-14T21:49:43.830Z,32.28
2022-12-14T21:52:14.009Z,29.25
2022-12-14T21:54:41.548Z,30.85
2022-12-14T21:57:31.596Z,33.85
2022-12-14T21:59:58.273Z,31.38
2022-12-14T22:02:25.583Z,33.55
2022-12-14T22:04:56.175Z,32.90
2022-12-14T22:07:28.757Z,32.90
2022-12-14T22:09:55.151Z,32.47
2022-12-14T22:12:21.702Z,33.42
2022-12-14T22:14:49.291Z,31.58
2022-12-14T22:17:15.798Z,31.13
2022-12-14T22:19:42.225Z,30.88
2022-12-14T22:22:14.520Z,31.75
2022-12-14T22:24:41.071Z,33.95
2022-12-14T22:27:08.511Z,29.42
2022-12-14T22:29:34.978Z,28.60
2022-12-14T22:32:01.432Z,31.67
2022-12-14T22:34:27.896Z,34.10
2022-12-14T22:36:54.304Z,35.53
2022-12-14T22:39:20.753Z,33.60
2022-12-14T22:41:48.953Z,33.55
2022-12-14T22:44:15.448Z,33.53
2022-12-14T22:46:41.965Z,34.67
2022-12-14T22:49:08.852Z,33.83
2022-12-14T22:51:35.419Z,34.78
2022-12-14T22:54:03.069Z,34.40
2022-12-14T22:56:48.579Z,32.13
2022-12-14T22:59:27.078Z,34.80
2022-12-14T23:01:54.985Z,34.63
2022-12-14T23:04:21.671Z,35.63
2022-12-14T23:06:48.229Z,36.33
2022-12-14T23:09:33.077Z,39.22
2022-12-14T23:12:21.510Z,35.17
2022-12-14T23:15:07.074Z,35.92
2022-12-14T23:17:52.449Z,39.17
2022-12-14T23:20:37.112Z,35.55
2022-12-14T23:23:26.580Z,38.35
2022-12-14T23:26:11.702Z,35.25
2022-12-14T23:28:56.882Z,36.83
2022-12-14T23:31:41.725Z,36.55
2022-12-14T23:34:26.927Z,36.17
2022-12-14T23:37:15.100Z,34.85
2022-12-14T23:40:04.458Z,39.85
2022-12-14T23:42:49.409Z,35.38
2022-12-14T23:45:34.526Z,37.13
2022-12-14T23:48:19.386Z,33.65
2022-12-14T23:51:03.983Z,37.58
2022-12-14T23:53:49.804Z,35.83
2022-12-14T23:56:35.607Z,35.92
2022-12-14T23:59:20.840Z,35.83
